createdAt,value
2016-12-11T00:01:35.131Z,93.716
2016-12-11T00:04:29.699Z,93.906
2016-12-11T00:07:24.569Z,93.686
2016-12-11T00:10:20.745Z,93.707
2016-12-11T00:13:13.565Z,93.617
2016-12-11T00:16:08.083Z,93.722
2016-12-11T00:19:02.436Z,93.838
2016-12-11T00:21:56.979Z,93.900
2016-12-11T00:24:51.408Z,93.924
2016-12-11T00:27:47.736Z,93.741
2016-12-11T00:30:40.461Z,93.870
2016-12-11T00:33:34.998Z,93.821
2016-12-11T00:36:29.539Z,93.880
2016-12-11T00:39:23.978Z,93.808
2016-12-11T00:42:18.467Z,93.909
2016-12-11T00:45:12.952Z,93.918
2016-12-11T00:48:07.373Z,93.892
2016-12-11T00:51:01.869Z,93.945
2016-12-11T00:53:56.273Z,93.677
2016-12-11T00:56:50.918Z,94.083
2016-12-11T00:59:45.372Z,93.857
2016-12-11T01:02:39.796Z,93.920
2016-12-11T01:05:34.316Z,93.192
2016-12-11T01:08:30.430Z,93.848
2016-12-11T01:11:23.081Z,93.949
2016-12-11T01:14:17.591Z,93.704
2016-12-11T01:17:11.899Z,93.565
2016-12-11T01:20:06.269Z,93.443
2016-12-11T01:23:00.617Z,93.638
2016-12-11T01:25:55.016Z,93.897
2016-12-11T01:28:49.472Z,93.595
2016-12-11T01:31:43.826Z,92.567
2016-12-11T01:34:38.357Z,92.605
2016-12-11T01:37:34.452Z,93.864
2016-12-11T01:40:27.201Z,93.596
2016-12-11T01:43:21.608Z,93.761
2016-12-11T01:46:15.950Z,94.073
2016-12-11T01:49:10.475Z,94.247
2016-12-11T01:52:06.713Z,94.159
2016-12-11T01:54:59.351Z,94.287
2016-12-11T01:57:53.719Z,94.232
2016-12-11T02:00:48.227Z,94.041
2016-12-11T02:03:42.899Z,93.700
2016-12-11T02:06:37.365Z,94.045
2016-12-11T02:09:31.769Z,93.980
2016-12-11T02:12:26.275Z,93.530
2016-12-11T02:15:20.718Z,92.808
2016-12-11T02:18:15.227Z,94.002
2016-12-11T02:21:09.679Z,93.310
2016-12-11T02:24:04.164Z,94.355
2016-12-11T02:26:58.543Z,94.582
2016-12-11T02:29:53.021Z,94.438
2016-12-11T02:32:47.516Z,94.666
2016-12-11T02:35:43.862Z,94.702
2016-12-11T02:38:38.273Z,94.627
2016-12-11T02:41:31.002Z,94.498
2016-12-11T02:44:25.511Z,93.755
2016-12-11T02:47:20.085Z,94.291
2016-12-11T02:50:14.374Z,94.250
2016-12-11T02:53:08.847Z,94.305
2016-12-11T02:56:04.994Z,93.797
2016-12-11T02:58:57.842Z,93.885
2016-12-11T03:01:52.368Z,94.296
2016-12-11T03:04:48.580Z,93.502
2016-12-11T03:07:41.403Z,94.531
2016-12-11T03:10:35.874Z,93.842
2016-12-11T03:13:30.271Z,92.648
2016-12-11T03:16:24.688Z,93.605
2016-12-11T03:19:19.659Z,92.665
2016-12-11T03:22:14.132Z,92.988
2016-12-11T03:25:08.503Z,93.914
2016-12-11T03:28:03.396Z,94.633
2016-12-11T03:30:57.945Z,93.554
2016-12-11T03:33:52.382Z,93.729
2016-12-11T03:36:47.162Z,94.479
2016-12-11T03:39:41.588Z,93.687
2016-12-11T03:42:35.980Z,94.664
2016-12-11T03:45:32.131Z,94.898
2016-12-11T03:48:24.931Z,94.530
2016-12-11T03:51:19.302Z,95.020
2016-12-11T03:54:13.682Z,94.688
2016-12-11T03:57:09.898Z,93.880
2016-12-11T04:00:02.586Z,94.166
2016-12-11T04:02:57.031Z,94.623
2016-12-11T04:05:53.170Z,95.373
2016-12-11T04:08:45.745Z,93.757
2016-12-11T04:11:42.141Z,95.060
2016-12-11T04:14:34.765Z,95.400
2016-12-11T04:17:30.894Z,94.566
2016-12-11T04:20:23.547Z,94.050
2016-12-11T04:23:18.011Z,94.893
2016-12-11T04:26:12.445Z,93.743
2016-12-11T04:29:06.826Z,94.657
2016-12-11T04:32:01.129Z,94.309
2016-12-11T04:34:55.524Z,94.995
2016-12-11T04:37:49.992Z,95.284
2016-12-11T04:40:44.384Z,95.169
2016-12-11T04:43:38.719Z,94.471
2016-12-11T04:46:33.136Z,94.796
2016-12-11T04:49:27.562Z,93.945
2016-12-11T04:52:21.947Z,94.773
2016-12-11T04:55:16.384Z,94.537
2016-12-11T04:58:10.769Z,95.039
2016-12-11T05:01:06.914Z,94.798
2016-12-11T05:03:59.652Z,94.089
2016-12-11T05:06:53.915Z,94.710
2016-12-11T05:09:49.972Z,94.641
2016-12-11T05:12:42.659Z,94.628
2016-12-11T05:15:37.108Z,94.134
2016-12-11T05:18:31.587Z,95.380
2016-12-11T05:21:26.034Z,94.893
2016-12-11T05:24:20.375Z,94.528
2016-12-11T05:27:14.711Z,93.971
2016-12-11T05:30:10.922Z,95.412
2016-12-11T05:33:03.402Z,94.632
2016-12-11T05:35:57.803Z,95.695
2016-12-11T05:38:52.131Z,95.075
2016-12-11T05:41:46.571Z,94.644
2016-12-11T05:44:42.656Z,94.731
2016-12-11T05:47:35.415Z,94.716
2016-12-11T05:50:29.956Z,94.362
2016-12-11T05:53:24.715Z,95.142
2016-12-11T05:56:19.112Z,94.722
2016-12-11T05:59:13.473Z,95.610
2016-12-11T06:02:07.935Z,95.302
2016-12-11T06:05:02.336Z,95.282
2016-12-11T06:07:56.723Z,95.773
2016-12-11T06:10:52.730Z,96.124
2016-12-11T06:13:47.054Z,96.154
2016-12-11T06:16:39.829Z,95.379
2016-12-11T06:19:34.097Z,95.657
2016-12-11T06:22:28.501Z,94.523
2016-12-11T06:25:22.837Z,96.185
2016-12-11T06:28:17.287Z,95.736
2016-12-11T06:31:11.636Z,95.497
2016-12-11T06:34:07.727Z,96.145
2016-12-11T06:37:00.454Z,97.443
2016-12-11T06:39:55.115Z,97.167
2016-12-11T06:42:49.431Z,96.639
2016-12-11T06:45:43.969Z,96.671
2016-12-11T06:48:38.342Z,96.918
2016-12-11T06:51:32.844Z,97.215
2016-12-11T06:54:27.198Z,96.892
2016-12-11T06:57:21.671Z,96.019
2016-12-11T07:00:16.153Z,96.829
2016-12-11T07:03:10.685Z,97.116
2016-12-11T07:06:05.207Z,97.402
2016-12-11T07:08:59.555Z,96.748
2016-12-11T07:11:53.998Z,97.078
2016-12-11T07:14:48.360Z,96.313
2016-12-11T07:17:42.869Z,96.976
2016-12-11T07:20:37.173Z,96.811
2016-12-11T07:23:31.540Z,97.278
2016-12-11T07:26:25.909Z,97.268
2016-12-11T07:29:20.382Z,97.457
2016-12-11T07:32:15.521Z,98.351
2016-12-11T07:35:09.226Z,98.496
2016-12-11T07:38:05.341Z,98.292
2016-12-11T07:40:58.132Z,98.624
2016-12-11T07:43:52.560Z,98.653
2016-12-11T07:46:46.905Z,98.799
2016-12-11T07:49:41.369Z,98.874
2016-12-11T07:52:35.832Z,98.619
2016-12-11T07:55:30.242Z,98.481
2016-12-11T07:58:24.707Z,98.413
2016-12-11T08:01:19.053Z,98.846
2016-12-11T08:04:15.117Z,99.175
2016-12-11T08:07:09.058Z,99.519
2016-12-11T08:10:02.831Z,99.360
2016-12-11T08:12:57.264Z,99.385
2016-12-11T08:15:51.751Z,99.181
2016-12-11T08:18:46.165Z,99.243
2016-12-11T08:21:40.575Z,99.135
2016-12-11T08:24:35.030Z,99.168
2016-12-11T08:27:29.463Z,99.060
2016-12-11T08:30:23.899Z,98.761
2016-12-11T08:33:18.396Z,99.042
2016-12-11T08:36:12.926Z,99.080
2016-12-11T08:39:07.283Z,99.036
2016-12-11T08:42:01.897Z,98.969
2016-12-11T08:44:56.372Z,99.097
2016-12-11T08:47:50.792Z,98.704
2016-12-11T08:50:45.281Z,98.596
2016-12-11T08:53:39.676Z,98.357
2016-12-11T08:56:34.041Z,98.250
2016-12-11T08:59:28.529Z,98.096
2016-12-11T09:02:23.013Z,97.874
2016-12-11T09:05:17.536Z,97.968
2016-12-11T09:08:11.885Z,97.902
2016-12-11T09:11:06.367Z,97.871
2016-12-11T09:14:00.842Z,97.912
2016-12-11T09:16:55.295Z,97.906
2016-12-11T09:19:51.491Z,97.957
2016-12-11T09:22:44.231Z,98.005
2016-12-11T09:25:38.685Z,98.380
2016-12-11T09:28:34.978Z,98.217
2016-12-11T09:31:29.340Z,98.268
2016-12-11T09:34:22.182Z,98.334
2016-12-11T09:37:16.702Z,98.208
2016-12-11T09:40:11.070Z,97.946
2016-12-11T09:43:05.509Z,97.937
2016-12-11T09:45:59.941Z,97.780
2016-12-11T09:48:54.386Z,97.562
2016-12-11T09:51:48.898Z,97.176
2016-12-11T09:54:43.720Z,96.503
2016-12-11T09:57:38.206Z,96.435
2016-12-11T10:00:32.712Z,95.328
2016-12-11T10:03:27.107Z,93.790
2016-12-11T10:06:21.484Z,94.166
2016-12-11T10:09:15.916Z,93.529
2016-12-11T10:12:10.207Z,93.595
2016-12-11T10:15:04.553Z,93.916
2016-12-11T10:17:59.017Z,94.074
2016-12-11T10:20:53.319Z,93.747
2016-12-11T10:23:47.696Z,93.652
2016-12-11T10:26:42.623Z,92.942
2016-12-11T10:29:36.650Z,92.409
2016-12-11T10:32:31.104Z,92.544
2016-12-11T10:35:26.004Z,92.356
2016-12-11T10:38:21.966Z,92.068
2016-12-11T10:41:14.771Z,91.914
2016-12-11T10:44:09.165Z,92.006
2016-12-11T10:47:03.477Z,92.541
2016-12-11T10:49:57.839Z,92.349
2016-12-11T10:52:52.241Z,91.965
2016-12-11T10:55:46.697Z,91.730
2016-12-11T10:58:41.172Z,91.922
2016-12-11T11:01:35.494Z,91.651
2016-12-11T11:04:29.891Z,92.363
2016-12-11T11:07:24.299Z,92.694
2016-12-11T11:10:18.670Z,93.111
2016-12-11T11:13:12.998Z,93.067
2016-12-11T11:16:07.406Z,92.969
2016-12-11T11:19:01.715Z,93.092
2016-12-11T11:21:55.918Z,93.300
2016-12-11T11:24:52.014Z,93.229
2016-12-11T11:27:44.715Z,93.361
2016-12-11T11:30:39.699Z,93.398
2016-12-11T11:33:34.014Z,92.954
2016-12-11T11:36:28.440Z,93.023
2016-12-11T11:39:22.779Z,92.849
2016-12-11T11:42:17.677Z,92.655
2016-12-11T11:45:12.013Z,92.776
2016-12-11T11:48:06.336Z,92.458
2016-12-11T11:51:00.671Z,92.067
2016-12-11T11:53:55.078Z,92.155
2016-12-11T11:56:51.796Z,91.821
2016-12-11T11:59:44.436Z,92.313
2016-12-11T12:02:38.892Z,91.989
2016-12-11T12:05:33.269Z,91.596
2016-12-11T12:08:27.604Z,91.913
2016-12-11T12:11:23.751Z,91.711
2016-12-11T12:14:16.345Z,91.823
2016-12-11T12:17:10.761Z,91.634
2016-12-11T12:20:05.193Z,91.802
2016-12-11T12:22:59.566Z,92.692
2016-12-11T12:25:55.771Z,92.932
2016-12-11T12:28:48.492Z,93.189
2016-12-11T12:31:44.496Z,93.149
2016-12-11T12:34:37.039Z,93.779
2016-12-11T12:37:31.483Z,94.313
2016-12-11T12:40:25.861Z,94.801
2016-12-11T12:43:20.116Z,95.347
2016-12-11T12:46:14.550Z,95.593
2016-12-11T12:49:08.967Z,95.996
2016-12-11T12:52:03.389Z,96.320
2016-12-11T12:54:57.649Z,95.743
2016-12-11T12:57:52.136Z,95.516
2016-12-11T13:00:46.502Z,95.338
2016-12-11T13:03:42.612Z,95.080
2016-12-11T13:06:36.994Z,95.617
2016-12-11T13:09:29.729Z,95.836
2016-12-11T13:12:24.167Z,95.554
2016-12-11T13:15:18.420Z,95.356
2016-12-11T13:18:13.335Z,95.134
2016-12-11T13:21:07.717Z,95.015
2016-12-11T13:24:02.071Z,95.042
2016-12-11T13:26:56.551Z,95.215
2016-12-11T13:29:52.583Z,95.397
2016-12-11T13:32:45.337Z,95.375
2016-12-11T13:35:39.665Z,95.391
2016-12-11T13:38:34.134Z,95.274
2016-12-11T13:41:30.222Z,95.356
2016-12-11T13:44:23.030Z,95.452
2016-12-11T13:47:19.206Z,95.007
2016-12-11T13:50:11.925Z,94.774
2016-12-11T13:53:06.346Z,94.681
2016-12-11T13:56:00.837Z,94.662
2016-12-11T13:58:55.239Z,94.612
2016-12-11T14:01:51.268Z,94.534
2016-12-11T14:04:44.090Z,94.406
2016-12-11T14:07:38.568Z,94.167
2016-12-11T14:10:33.008Z,94.249
2016-12-11T14:13:27.493Z,94.058
2016-12-11T14:16:21.839Z,93.747
2016-12-11T14:19:16.255Z,94.189
2016-12-11T14:22:10.746Z,94.298
2016-12-11T14:25:05.236Z,93.923
2016-12-11T14:27:59.668Z,93.849
2016-12-11T14:30:54.038Z,93.914
2016-12-11T14:33:48.490Z,93.855
2016-12-11T14:36:42.981Z,94.020
2016-12-11T14:39:39.106Z,94.060
2016-12-11T14:42:31.822Z,94.133
2016-12-11T14:45:26.183Z,94.040
2016-12-11T14:48:20.595Z,94.152
2016-12-11T14:51:15.031Z,94.198
2016-12-11T14:54:09.441Z,94.427
2016-12-11T14:57:03.823Z,96.348
2016-12-11T14:59:58.173Z,96.294
2016-12-11T15:02:52.596Z,97.453
2016-12-11T15:05:47.138Z,96.753
2016-12-11T15:08:43.345Z,95.673
2016-12-11T15:11:36.053Z,95.566
2016-12-11T15:14:30.410Z,95.241
2016-12-11T15:17:24.697Z,95.026
2016-12-11T15:20:18.979Z,94.772
2016-12-11T15:23:13.417Z,94.876
2016-12-11T15:26:07.936Z,95.120
2016-12-11T15:29:02.359Z,95.028
2016-12-11T15:31:58.558Z,94.699
2016-12-11T15:34:51.287Z,94.526
2016-12-11T15:37:45.689Z,94.630
2016-12-11T15:40:40.038Z,94.623
2016-12-11T15:43:36.153Z,94.555
2016-12-11T15:46:28.679Z,94.409
2016-12-11T15:49:23.126Z,94.338
2016-12-11T15:52:17.563Z,94.451
2016-12-11T15:55:11.881Z,94.209
2016-12-11T15:58:06.624Z,93.625
2016-12-11T16:01:01.042Z,93.503
2016-12-11T16:03:57.255Z,93.626
2016-12-11T16:06:51.791Z,93.523
2016-12-11T16:09:44.287Z,93.234
2016-12-11T16:12:38.755Z,92.978
2016-12-11T16:15:33.235Z,92.582
2016-12-11T16:18:29.538Z,92.284
2016-12-11T16:21:22.211Z,93.407
2016-12-11T16:24:16.546Z,92.431
2016-12-11T16:27:10.880Z,92.063
2016-12-11T16:30:05.342Z,92.356
2016-12-11T16:32:59.749Z,92.883
2016-12-11T16:35:54.058Z,92.787
2016-12-11T16:38:48.415Z,93.053
2016-12-11T16:41:43.677Z,93.129
2016-12-11T16:44:37.060Z,93.139
2016-12-11T16:47:31.353Z,93.276
2016-12-11T16:50:25.678Z,93.646
2016-12-11T16:53:20.098Z,93.625
2016-12-11T16:56:14.468Z,94.711
2016-12-11T16:59:08.783Z,94.142
2016-12-11T17:02:03.121Z,93.870
2016-12-11T17:04:59.149Z,94.172
2016-12-11T17:07:52.008Z,93.592
2016-12-11T17:10:48.127Z,93.876
2016-12-11T17:13:40.718Z,94.209
2016-12-11T17:16:35.085Z,94.251
2016-12-11T17:19:29.471Z,93.999
2016-12-11T17:22:23.883Z,93.888
2016-12-11T17:25:19.798Z,94.097
2016-12-11T17:28:12.550Z,94.186
2016-12-11T17:31:06.822Z,93.932
2016-12-11T17:34:01.193Z,93.935
2016-12-11T17:36:57.271Z,93.527
2016-12-11T17:39:49.920Z,93.682
2016-12-11T17:42:44.319Z,93.446
2016-12-11T17:45:38.715Z,93.374
2016-12-11T17:48:33.168Z,93.353
2016-12-11T17:51:27.550Z,93.374
2016-12-11T17:54:22.010Z,93.374
2016-12-11T17:57:16.359Z,93.375
2016-12-11T18:00:11.545Z,92.979
2016-12-11T18:03:06.999Z,93.394
2016-12-11T18:05:59.644Z,94.724
2016-12-11T18:08:53.959Z,93.702
2016-12-11T18:11:48.431Z,93.247
2016-12-11T18:14:44.473Z,93.007
2016-12-11T18:17:37.138Z,92.746
2016-12-11T18:20:31.527Z,93.252
2016-12-11T18:23:26.366Z,93.382
2016-12-11T18:26:20.649Z,93.467
2016-12-11T18:29:15.320Z,93.241
2016-12-11T18:32:09.612Z,93.474
2016-12-11T18:35:03.955Z,93.648
2016-12-11T18:38:00.043Z,94.013
2016-12-11T18:40:52.832Z,93.926
2016-12-11T18:43:48.828Z,94.083
2016-12-11T18:46:41.434Z,94.059
2016-12-11T18:49:35.761Z,94.144
2016-12-11T18:52:31.768Z,94.424
2016-12-11T18:55:24.978Z,94.551
2016-12-11T18:58:19.299Z,94.556
2016-12-11T19:01:13.725Z,94.570
2016-12-11T19:04:09.855Z,94.683
2016-12-11T19:07:02.592Z,94.544
2016-12-11T19:09:58.591Z,94.508
2016-12-11T19:12:51.178Z,94.391
2016-12-11T19:15:45.684Z,94.502
2016-12-11T19:18:40.065Z,94.589
2016-12-11T19:21:34.450Z,94.624
2016-12-11T19:24:28.821Z,94.707
2016-12-11T19:27:23.224Z,95.104
2016-12-11T19:30:19.471Z,94.933
2016-12-11T19:33:12.110Z,95.054
2016-12-11T19:36:06.463Z,95.096
2016-12-11T19:39:00.831Z,95.228
2016-12-11T19:41:56.924Z,95.048
2016-12-11T19:44:49.661Z,95.207
2016-12-11T19:47:45.728Z,95.404
2016-12-11T19:50:38.424Z,95.299
2016-12-11T19:53:32.819Z,95.546
2016-12-11T19:56:27.239Z,95.429
2016-12-11T19:59:21.670Z,95.874
2016-12-11T20:02:16.159Z,95.841
2016-12-11T20:05:12.210Z,96.218
2016-12-11T20:08:06.632Z,95.952
2016-12-11T20:10:59.197Z,96.208
2016-12-11T20:13:55.324Z,95.925
2016-12-11T20:16:47.949Z,95.879
2016-12-11T20:19:44.097Z,95.802
2016-12-11T20:22:36.840Z,95.928
2016-12-11T20:25:31.222Z,95.639
2016-12-11T20:28:25.580Z,95.552
2016-12-11T20:31:20.067Z,95.197
2016-12-11T20:34:14.389Z,95.223
2016-12-11T20:37:08.779Z,95.294
2016-12-11T20:40:03.096Z,95.036
2016-12-11T20:42:57.541Z,95.111
2016-12-11T20:45:52.005Z,94.992
2016-12-11T20:48:46.575Z,94.898
2016-12-11T20:51:41.440Z,94.754
2016-12-11T20:54:35.908Z,94.635
2016-12-11T20:57:30.519Z,94.588
2016-12-11T21:00:24.880Z,94.490
2016-12-11T21:03:19.213Z,94.560
2016-12-11T21:06:15.399Z,94.520
2016-12-11T21:09:07.979Z,94.405
2016-12-11T21:12:02.435Z,94.750
2016-12-11T21:14:56.869Z,94.683
2016-12-11T21:17:51.309Z,94.713
2016-12-11T21:20:45.791Z,95.152
2016-12-11T21:23:40.305Z,95.033
2016-12-11T21:26:34.764Z,94.899
2016-12-11T21:29:30.899Z,95.060
2016-12-11T21:32:23.529Z,94.615
2016-12-11T21:35:18.035Z,94.490
2016-12-11T21:38:12.461Z,94.773
2016-12-11T21:41:06.856Z,94.469
2016-12-11T21:44:01.287Z,94.601
2016-12-11T21:46:55.678Z,94.805
2016-12-11T21:49:50.094Z,94.467
2016-12-11T21:52:44.449Z,94.716
2016-12-11T21:55:38.914Z,94.830
2016-12-11T21:58:33.312Z,94.941
2016-12-11T22:01:27.582Z,94.892
2016-12-11T22:04:21.972Z,94.461
2016-12-11T22:07:16.335Z,94.350
2016-12-11T22:10:10.780Z,94.461
2016-12-11T22:13:05.164Z,94.233
2016-12-11T22:15:59.524Z,94.001
2016-12-11T22:18:53.958Z,93.781
2016-12-11T22:21:48.313Z,93.865
2016-12-11T22:24:42.785Z,93.745
2016-12-11T22:27:37.226Z,93.467
2016-12-11T22:30:31.722Z,93.452
2016-12-11T22:33:26.126Z,93.350
2016-12-11T22:36:20.579Z,93.048
2016-12-11T22:39:14.912Z,93.131
2016-12-11T22:42:09.350Z,93.454
2016-12-11T22:45:03.778Z,93.928
2016-12-11T22:47:58.218Z,93.906
2016-12-11T22:50:52.630Z,93.829
2016-12-11T22:53:47.170Z,94.012
2016-12-11T22:56:43.339Z,94.354
2016-12-11T22:59:36.104Z,94.770
2016-12-11T23:02:30.411Z,95.225
2016-12-11T23:05:24.822Z,95.455
2016-12-11T23:08:19.277Z,96.274
2016-12-11T23:11:13.635Z,96.534
2016-12-11T23:14:08.045Z,97.145
2016-12-11T23:17:04.109Z,97.070
2016-12-11T23:19:56.807Z,96.888
2016-12-11T23:22:51.159Z,96.547
2016-12-11T23:25:45.502Z,97.096
2016-12-11T23:28:39.949Z,96.833
2016-12-11T23:31:34.292Z,96.700
2016-12-11T23:34:28.758Z,97.151
2016-12-11T23:37:23.228Z,96.384
2016-12-11T23:40:19.328Z,97.193
2016-12-11T23:43:12.084Z,97.112
2016-12-11T23:46:06.411Z,96.823
2016-12-11T23:49:00.690Z,97.126
2016-12-11T23:51:55.080Z,97.021
2016-12-11T23:54:51.126Z,96.995
2016-12-11T23:57:43.829Z,96.970
